sensor_id;sensor_type;location;lat;lon;timestamp;P1;durP1;ratioP1;P2;durP2;ratioP2
72109;SDS011;59983;52.010;5.420;2023-08-12T00:00:05;7.68;;;6.68;;
72109;SDS011;59983;52.010;5.420;2023-08-12T00:02:41;6.82;;;6.03;;
72109;SDS011;59983;52.010;5.420;2023-08-12T00:05:08;7.00;;;5.73;;
72109;SDS011;59983;52.010;5.420;2023-08-12T00:07:39;8.50;;;6.38;;
72109;SDS011;59983;52.010;5.420;2023-08-12T00:10:09;8.25;;;5.95;;
72109;SDS011;59983;52.010;5.420;2023-08-12T00:12:38;8.68;;;6.18;;
72109;SDS011;59983;52.010;5.420;2023-08-12T00:15:05;10.98;;;6.32;;
72109;SDS011;59983;52.010;5.420;2023-08-12T00:17:34;10.17;;;6.23;;
72109;SDS011;59983;52.010;5.420;2023-08-12T00:20:04;7.97;;;6.40;;
72109;SDS011;59983;52.010;5.420;2023-08-12T00:22:37;8.15;;;6.63;;
72109;SDS011;59983;52.010;5.420;2023-08-12T00:25:05;7.38;;;6.63;;
72109;SDS011;59983;52.010;5.420;2023-08-12T00:27:32;10.15;;;7.18;;
72109;SDS011;59983;52.010;5.420;2023-08-12T00:29:59;12.83;;;7.53;;
72109;SDS011;59983;52.010;5.420;2023-08-12T00:32:25;10.07;;;6.60;;
72109;SDS011;59983;52.010;5.420;2023-08-12T00:34:52;10.00;;;7.50;;
72109;SDS011;59983;52.010;5.420;2023-08-12T00:37:19;10.75;;;7.03;;
72109;SDS011;59983;52.010;5.420;2023-08-12T00:39:45;13.43;;;7.55;;
72109;SDS011;59983;52.010;5.420;2023-08-12T00:42:12;10.90;;;7.47;;
72109;SDS011;59983;52.010;5.420;2023-08-12T00:44:38;8.40;;;6.90;;
72109;SDS011;59983;52.010;5.420;2023-08-12T00:47:05;10.30;;;7.95;;
72109;SDS011;59983;52.010;5.420;2023-08-12T00:49:32;9.73;;;8.00;;
72109;SDS011;59983;52.010;5.420;2023-08-12T00:51:59;9.98;;;7.03;;
72109;SDS011;59983;52.010;5.420;2023-08-12T00:54:26;10.03;;;8.10;;
72109;SDS011;59983;52.010;5.420;2023-08-12T00:56:54;10.93;;;8.20;;
72109;SDS011;59983;52.010;5.420;2023-08-12T00:59:21;14.23;;;9.57;;
72109;SDS011;59983;52.010;5.420;2023-08-12T01:01:49;14.20;;;9.80;;
72109;SDS011;59983;52.010;5.420;2023-08-12T01:04:15;18.58;;;9.02;;
72109;SDS011;59983;52.010;5.420;2023-08-12T01:06:42;18.93;;;11.07;;
72109;SDS011;59983;52.010;5.420;2023-08-12T01:09:09;17.27;;;10.25;;
72109;SDS011;59983;52.010;5.420;2023-08-12T01:11:55;18.50;;;11.00;;
72109;SDS011;59983;52.010;5.420;2023-08-12T01:14:35;15.70;;;10.85;;
72109;SDS011;59983;52.010;5.420;2023-08-12T01:17:11;11.75;;;9.52;;
72109;SDS011;59983;52.010;5.420;2023-08-12T01:19:40;17.07;;;10.57;;
72109;SDS011;59983;52.010;5.420;2023-08-12T01:22:10;15.32;;;10.88;;
72109;SDS011;59983;52.010;5.420;2023-08-12T01:24:41;12.60;;;9.98;;
72109;SDS011;59983;52.010;5.420;2023-08-12T01:27:10;15.93;;;9.75;;
72109;SDS011;59983;52.010;5.420;2023-08-12T01:29:40;12.32;;;10.40;;
72109;SDS011;59983;52.010;5.420;2023-08-12T01:34:45;12.57;;;10.52;;
72109;SDS011;59983;52.010;5.420;2023-08-12T01:37:23;12.93;;;10.85;;
72109;SDS011;59983;52.010;5.420;2023-08-12T01:39:53;11.88;;;10.57;;
72109;SDS011;59983;52.010;5.420;2023-08-12T01:42:21;14.63;;;10.55;;
72109;SDS011;59983;52.010;5.420;2023-08-12T01:44:48;14.77;;;10.30;;
72109;SDS011;59983;52.010;5.420;2023-08-12T01:47:16;15.07;;;10.98;;
72109;SDS011;59983;52.010;5.420;2023-08-12T01:49:42;18.08;;;9.98;;
72109;SDS011;59983;52.010;5.420;2023-08-12T01:52:09;14.02;;;10.02;;
72109;SDS011;59983;52.010;5.420;2023-08-12T01:54:35;13.65;;;10.05;;
72109;SDS011;59983;52.010;5.420;2023-08-12T01:57:02;13.73;;;11.03;;
72109;SDS011;59983;52.010;5.420;2023-08-12T01:59:35;18.98;;;10.65;;
72109;SDS011;59983;52.010;5.420;2023-08-12T02:02:02;14.07;;;10.70;;
72109;SDS011;59983;52.010;5.420;2023-08-12T02:04:29;16.65;;;11.57;;
72109;SDS011;59983;52.010;5.420;2023-08-12T02:06:56;12.60;;;10.65;;
72109;SDS011;59983;52.010;5.420;2023-08-12T02:09:23;13.57;;;10.40;;
72109;SDS011;59983;52.010;5.420;2023-08-12T02:11:49;13.00;;;10.10;;
72109;SDS011;59983;52.010;5.420;2023-08-12T02:14:16;12.98;;;9.48;;
72109;SDS011;59983;52.010;5.420;2023-08-12T02:16:42;11.95;;;9.77;;
72109;SDS011;59983;52.010;5.420;2023-08-12T02:19:09;14.70;;;9.63;;
72109;SDS011;59983;52.010;5.420;2023-08-12T02:21:35;14.97;;;9.83;;
72109;SDS011;59983;52.010;5.420;2023-08-12T02:24:02;13.50;;;9.60;;
72109;SDS011;59983;52.010;5.420;2023-08-12T02:26:29;13.05;;;9.65;;
72109;SDS011;59983;52.010;5.420;2023-08-12T02:28:56;14.88;;;10.00;;
72109;SDS011;59983;52.010;5.420;2023-08-12T02:31:23;13.68;;;9.88;;
72109;SDS011;59983;52.010;5.420;2023-08-12T02:33:49;13.07;;;10.33;;
72109;SDS011;59983;52.010;5.420;2023-08-12T02:36:16;19.10;;;10.35;;
72109;SDS011;59983;52.010;5.420;2023-08-12T02:38:43;12.50;;;10.65;;
72109;SDS011;59983;52.010;5.420;2023-08-12T02:41:09;14.73;;;10.30;;
72109;SDS011;59983;52.010;5.420;2023-08-12T02:43:36;16.25;;;11.05;;
72109;SDS011;59983;52.010;5.420;2023-08-12T02:46:03;14.03;;;11.00;;
72109;SDS011;59983;52.010;5.420;2023-08-12T02:48:29;14.13;;;11.00;;
72109;SDS011;59983;52.010;5.420;2023-08-12T02:50:56;14.65;;;10.45;;
72109;SDS011;59983;52.010;5.420;2023-08-12T02:53:23;15.55;;;10.82;;
72109;SDS011;59983;52.010;5.420;2023-08-12T02:55:49;18.63;;;10.52;;
72109;SDS011;59983;52.010;5.420;2023-08-12T02:58:16;16.37;;;11.83;;
72109;SDS011;59983;52.010;5.420;2023-08-12T03:00:42;17.58;;;10.63;;
72109;SDS011;59983;52.010;5.420;2023-08-12T03:03:12;14.60;;;10.82;;
72109;SDS011;59983;52.010;5.420;2023-08-12T03:05:39;15.40;;;10.35;;
72109;SDS011;59983;52.010;5.420;2023-08-12T03:08:07;11.93;;;10.52;;
72109;SDS011;59983;52.010;5.420;2023-08-12T03:10:33;14.37;;;10.40;;
72109;SDS011;59983;52.010;5.420;2023-08-12T03:13:00;15.38;;;10.65;;
72109;SDS011;59983;52.010;5.420;2023-08-12T03:15:27;13.48;;;11.18;;
72109;SDS011;59983;52.010;5.420;2023-08-12T03:17:53;12.80;;;10.73;;
72109;SDS011;59983;52.010;5.420;2023-08-12T03:20:20;14.27;;;11.30;;
72109;SDS011;59983;52.010;5.420;2023-08-12T03:22:46;18.07;;;11.83;;
72109;SDS011;59983;52.010;5.420;2023-08-12T03:25:13;17.73;;;11.30;;
72109;SDS011;59983;52.010;5.420;2023-08-12T03:27:41;13.35;;;10.07;;
72109;SDS011;59983;52.010;5.420;2023-08-12T03:30:08;18.02;;;11.82;;
72109;SDS011;59983;52.010;5.420;2023-08-12T03:32:35;14.57;;;10.82;;
72109;SDS011;59983;52.010;5.420;2023-08-12T03:35:02;17.93;;;11.17;;
72109;SDS011;59983;52.010;5.420;2023-08-12T03:37:30;16.10;;;11.00;;
72109;SDS011;59983;52.010;5.420;2023-08-12T03:39:56;12.02;;;10.77;;
72109;SDS011;59983;52.010;5.420;2023-08-12T03:42:23;15.00;;;11.10;;
72109;SDS011;59983;52.010;5.420;2023-08-12T03:44:50;13.90;;;11.63;;
72109;SDS011;59983;52.010;5.420;2023-08-12T03:47:16;15.03;;;11.63;;
72109;SDS011;59983;52.010;5.420;2023-08-12T03:49:48;17.10;;;13.57;;
72109;SDS011;59983;52.010;5.420;2023-08-12T03:52:14;15.20;;;13.40;;
72109;SDS011;59983;52.010;5.420;2023-08-12T03:54:41;18.88;;;12.88;;
72109;SDS011;59983;52.010;5.420;2023-08-12T03:57:07;17.02;;;13.23;;
72109;SDS011;59983;52.010;5.420;2023-08-12T03:59:34;13.67;;;12.27;;
72109;SDS011;59983;52.010;5.420;2023-08-12T04:02:01;21.13;;;14.07;;
72109;SDS011;59983;52.010;5.420;2023-08-12T04:04:28;19.77;;;15.02;;
72109;SDS011;59983;52.010;5.420;2023-08-12T04:06:54;22.27;;;13.75;;
72109;SDS011;59983;52.010;5.420;2023-08-12T04:09:21;20.52;;;15.60;;
72109;SDS011;59983;52.010;5.420;2023-08-12T04:11:47;20.70;;;14.73;;
72109;SDS011;59983;52.010;5.420;2023-08-12T04:14:14;20.42;;;14.77;;
72109;SDS011;59983;52.010;5.420;2023-08-12T04:16:41;25.17;;;15.55;;
72109;SDS011;59983;52.010;5.420;2023-08-12T04:19:07;25.02;;;13.50;;
72109;SDS011;59983;52.010;5.420;2023-08-12T04:21:34;17.42;;;13.27;;
72109;SDS011;59983;52.010;5.420;2023-08-12T04:24:01;13.87;;;12.00;;
72109;SDS011;59983;52.010;5.420;2023-08-12T04:26:27;18.27;;;12.15;;
72109;SDS011;59983;52.010;5.420;2023-08-12T04:28:54;18.92;;;13.60;;
72109;SDS011;59983;52.010;5.420;2023-08-12T04:31:20;15.35;;;11.57;;
72109;SDS011;59983;52.010;5.420;2023-08-12T04:33:47;17.40;;;11.70;;
72109;SDS011;59983;52.010;5.420;2023-08-12T04:36:15;13.20;;;10.43;;
72109;SDS011;59983;52.010;5.420;2023-08-12T04:38:42;13.45;;;10.48;;
72109;SDS011;59983;52.010;5.420;2023-08-12T04:41:08;12.65;;;9.98;;
72109;SDS011;59983;52.010;5.420;2023-08-12T04:43:35;12.93;;;10.68;;
72109;SDS011;59983;52.010;5.420;2023-08-12T04:46:02;14.32;;;10.75;;
72109;SDS011;59983;52.010;5.420;2023-08-12T04:48:29;11.97;;;10.00;;
72109;SDS011;59983;52.010;5.420;2023-08-12T04:50:57;14.30;;;10.88;;
72109;SDS011;59983;52.010;5.420;2023-08-12T04:53:27;13.77;;;9.73;;
72109;SDS011;59983;52.010;5.420;2023-08-12T04:55:55;16.35;;;11.27;;
72109;SDS011;59983;52.010;5.420;2023-08-12T04:58:23;11.00;;;9.73;;
72109;SDS011;59983;52.010;5.420;2023-08-12T05:00:50;15.00;;;10.40;;
72109;SDS011;59983;52.010;5.420;2023-08-12T05:03:20;17.73;;;12.05;;
72109;SDS011;59983;52.010;5.420;2023-08-12T05:05:50;15.15;;;10.75;;
72109;SDS011;59983;52.010;5.420;2023-08-12T05:08:17;14.95;;;11.25;;
72109;SDS011;59983;52.010;5.420;2023-08-12T05:10:46;15.38;;;12.43;;
72109;SDS011;59983;52.010;5.420;2023-08-12T05:13:14;15.43;;;11.67;;
72109;SDS011;59983;52.010;5.420;2023-08-12T05:15:44;14.98;;;12.13;;
72109;SDS011;59983;52.010;5.420;2023-08-12T05:18:11;14.23;;;12.70;;
72109;SDS011;59983;52.010;5.420;2023-08-12T05:20:38;15.32;;;12.45;;
72109;SDS011;59983;52.010;5.420;2023-08-12T05:23:10;16.05;;;11.52;;
72109;SDS011;59983;52.010;5.420;2023-08-12T05:25:38;13.67;;;11.60;;
72109;SDS011;59983;52.010;5.420;2023-08-12T05:28:05;16.67;;;11.60;;
72109;SDS011;59983;52.010;5.420;2023-08-12T05:30:31;17.25;;;12.23;;
72109;SDS011;59983;52.010;5.420;2023-08-12T05:32:58;17.00;;;11.32;;
72109;SDS011;59983;52.010;5.420;2023-08-12T05:35:25;14.57;;;10.52;;
72109;SDS011;59983;52.010;5.420;2023-08-12T05:37:52;12.53;;;10.17;;
72109;SDS011;59983;52.010;5.420;2023-08-12T05:40:18;15.50;;;10.85;;
72109;SDS011;59983;52.010;5.420;2023-08-12T05:42:45;11.32;;;10.13;;
72109;SDS011;59983;52.010;5.420;2023-08-12T05:45:11;15.88;;;10.50;;
72109;SDS011;59983;52.010;5.420;2023-08-12T05:47:38;13.60;;;10.43;;
72109;SDS011;59983;52.010;5.420;2023-08-12T05:50:04;21.00;;;11.27;;
72109;SDS011;59983;52.010;5.420;2023-08-12T05:52:32;17.92;;;11.00;;
72109;SDS011;59983;52.010;5.420;2023-08-12T05:54:59;12.77;;;10.57;;
72109;SDS011;59983;52.010;5.420;2023-08-12T05:57:26;12.43;;;10.95;;
72109;SDS011;59983;52.010;5.420;2023-08-12T05:59:55;14.13;;;11.73;;
72109;SDS011;59983;52.010;5.420;2023-08-12T06:02:21;13.80;;;11.77;;
72109;SDS011;59983;52.010;5.420;2023-08-12T06:04:48;15.32;;;11.02;;
72109;SDS011;59983;52.010;5.420;2023-08-12T06:07:15;13.93;;;10.73;;
72109;SDS011;59983;52.010;5.420;2023-08-12T06:09:41;13.27;;;10.65;;
72109;SDS011;59983;52.010;5.420;2023-08-12T06:12:08;12.05;;;10.32;;
72109;SDS011;59983;52.010;5.420;2023-08-12T06:14:37;17.27;;;11.17;;
72109;SDS011;59983;52.010;5.420;2023-08-12T06:17:04;17.35;;;12.05;;
72109;SDS011;59983;52.010;5.420;2023-08-12T06:19:31;17.33;;;11.77;;
72109;SDS011;59983;52.010;5.420;2023-08-12T06:21:57;19.20;;;11.63;;
72109;SDS011;59983;52.010;5.420;2023-08-12T06:24:24;16.08;;;11.82;;
72109;SDS011;59983;52.010;5.420;2023-08-12T06:26:50;19.10;;;11.50;;
72109;SDS011;59983;52.010;5.420;2023-08-12T06:29:17;17.80;;;12.18;;
72109;SDS011;59983;52.010;5.420;2023-08-12T06:31:43;13.77;;;11.52;;
72109;SDS011;59983;52.010;5.420;2023-08-12T06:34:10;12.25;;;10.38;;
72109;SDS011;59983;52.010;5.420;2023-08-12T06:36:37;17.15;;;12.02;;
72109;SDS011;59983;52.010;5.420;2023-08-12T06:39:03;17.20;;;10.73;;
72109;SDS011;59983;52.010;5.420;2023-08-12T06:41:30;12.20;;;10.20;;
72109;SDS011;59983;52.010;5.420;2023-08-12T06:43:56;14.10;;;10.90;;
72109;SDS011;59983;52.010;5.420;2023-08-12T06:46:23;12.80;;;10.10;;
72109;SDS011;59983;52.010;5.420;2023-08-12T06:48:50;14.75;;;10.43;;
72109;SDS011;59983;52.010;5.420;2023-08-12T06:51:16;18.63;;;10.03;;
72109;SDS011;59983;52.010;5.420;2023-08-12T06:53:43;13.55;;;10.32;;
72109;SDS011;59983;52.010;5.420;2023-08-12T06:56:09;11.75;;;9.82;;
72109;SDS011;59983;52.010;5.420;2023-08-12T06:58:36;16.13;;;9.73;;
72109;SDS011;59983;52.010;5.420;2023-08-12T07:01:03;12.55;;;9.57;;
72109;SDS011;59983;52.010;5.420;2023-08-12T07:03:29;10.63;;;9.53;;
72109;SDS011;59983;52.010;5.420;2023-08-12T07:05:56;10.75;;;9.68;;
72109;SDS011;59983;52.010;5.420;2023-08-12T07:08:22;9.40;;;8.40;;
72109;SDS011;59983;52.010;5.420;2023-08-12T07:10:49;9.80;;;7.80;;
72109;SDS011;59983;52.010;5.420;2023-08-12T07:13:16;9.18;;;8.15;;
72109;SDS011;59983;52.010;5.420;2023-08-12T07:15:43;12.70;;;8.33;;
72109;SDS011;59983;52.010;5.420;2023-08-12T07:18:09;11.50;;;8.50;;
72109;SDS011;59983;52.010;5.420;2023-08-12T07:20:36;13.32;;;9.23;;
72109;SDS011;59983;52.010;5.420;2023-08-12T07:23:03;16.42;;;8.60;;
72109;SDS011;59983;52.010;5.420;2023-08-12T07:25:29;9.60;;;8.57;;
72109;SDS011;59983;52.010;5.420;2023-08-12T07:27:56;10.60;;;8.60;;
72109;SDS011;59983;52.010;5.420;2023-08-12T07:30:22;10.90;;;7.82;;
72109;SDS011;59983;52.010;5.420;2023-08-12T07:32:49;13.27;;;8.45;;
72109;SDS011;59983;52.010;5.420;2023-08-12T07:35:16;11.20;;;8.32;;
72109;SDS011;59983;52.010;5.420;2023-08-12T07:37:42;8.27;;;7.57;;
72109;SDS011;59983;52.010;5.420;2023-08-12T07:40:09;6.97;;;6.43;;
72109;SDS011;59983;52.010;5.420;2023-08-12T07:42:36;6.53;;;5.93;;
72109;SDS011;59983;52.010;5.420;2023-08-12T07:45:03;6.40;;;5.80;;
72109;SDS011;59983;52.010;5.420;2023-08-12T07:47:30;5.13;;;4.80;;
72109;SDS011;59983;52.010;5.420;2023-08-12T07:49:56;9.75;;;4.63;;
72109;SDS011;59983;52.010;5.420;2023-08-12T07:52:23;5.50;;;4.73;;
72109;SDS011;59983;52.010;5.420;2023-08-12T07:54:49;4.60;;;4.20;;
72109;SDS011;59983;52.010;5.420;2023-08-12T07:57:17;4.25;;;3.95;;
72109;SDS011;59983;52.010;5.420;2023-08-12T07:59:43;3.60;;;3.40;;
72109;SDS011;59983;52.010;5.420;2023-08-12T08:02:10;3.63;;;3.33;;
72109;SDS011;59983;52.010;5.420;2023-08-12T08:04:37;3.33;;;3.13;;
72109;SDS011;59983;52.010;5.420;2023-08-12T08:07:03;3.05;;;2.85;;
72109;SDS011;59983;52.010;5.420;2023-08-12T08:09:30;3.53;;;3.33;;
72109;SDS011;59983;52.010;5.420;2023-08-12T08:11:57;3.13;;;2.92;;
72109;SDS011;59983;52.010;5.420;2023-08-12T08:14:23;3.15;;;2.95;;
72109;SDS011;59983;52.010;5.420;2023-08-12T08:16:50;2.90;;;2.70;;
72109;SDS011;59983;52.010;5.420;2023-08-12T08:19:17;2.70;;;2.60;;
72109;SDS011;59983;52.010;5.420;2023-08-12T08:21:45;3.42;;;3.30;;
72109;SDS011;59983;52.010;5.420;2023-08-12T08:24:11;2.55;;;2.42;;
72109;SDS011;59983;52.010;5.420;2023-08-12T08:26:39;2.75;;;2.65;;
72109;SDS011;59983;52.010;5.420;2023-08-12T08:29:06;2.80;;;2.63;;
72109;SDS011;59983;52.010;5.420;2023-08-12T08:31:33;2.70;;;2.45;;
72109;SDS011;59983;52.010;5.420;2023-08-12T08:34:00;3.25;;;3.08;;
72109;SDS011;59983;52.010;5.420;2023-08-12T08:36:27;2.65;;;2.55;;
72109;SDS011;59983;52.010;5.420;2023-08-12T08:38:53;2.42;;;2.33;;
72109;SDS011;59983;52.010;5.420;2023-08-12T08:41:20;1.93;;;1.83;;
72109;SDS011;59983;52.010;5.420;2023-08-12T08:43:48;1.95;;;1.85;;
72109;SDS011;59983;52.010;5.420;2023-08-12T08:46:15;2.63;;;2.42;;
72109;SDS011;59983;52.010;5.420;2023-08-12T08:48:43;2.38;;;2.28;;
72109;SDS011;59983;52.010;5.420;2023-08-12T08:51:10;3.08;;;2.80;;
72109;SDS011;59983;52.010;5.420;2023-08-12T08:53:38;2.70;;;2.50;;
72109;SDS011;59983;52.010;5.420;2023-08-12T08:56:05;2.28;;;2.17;;
72109;SDS011;59983;52.010;5.420;2023-08-12T08:58:40;3.03;;;2.83;;
72109;SDS011;59983;52.010;5.420;2023-08-12T09:01:07;2.88;;;2.67;;
72109;SDS011;59983;52.010;5.420;2023-08-12T09:03:35;2.92;;;2.80;;
72109;SDS011;59983;52.010;5.420;2023-08-12T09:06:04;3.00;;;2.87;;
72109;SDS011;59983;52.010;5.420;2023-08-12T09:08:31;2.58;;;2.47;;
72109;SDS011;59983;52.010;5.420;2023-08-12T09:11:01;2.80;;;2.60;;
72109;SDS011;59983;52.010;5.420;2023-08-12T09:13:29;2.75;;;2.55;;
72109;SDS011;59983;52.010;5.420;2023-08-12T09:15:56;2.90;;;2.58;;
72109;SDS011;59983;52.010;5.420;2023-08-12T09:18:22;3.70;;;2.50;;
72109;SDS011;59983;52.010;5.420;2023-08-12T09:20:52;2.53;;;2.22;;
72109;SDS011;59983;52.010;5.420;2023-08-12T09:23:19;3.53;;;2.58;;
72109;SDS011;59983;52.010;5.420;2023-08-12T09:25:46;3.60;;;3.00;;
72109;SDS011;59983;52.010;5.420;2023-08-12T09:28:12;2.85;;;2.65;;
72109;SDS011;59983;52.010;5.420;2023-08-12T09:30:39;4.83;;;2.90;;
72109;SDS011;59983;52.010;5.420;2023-08-12T09:33:07;5.88;;;3.13;;
72109;SDS011;59983;52.010;5.420;2023-08-12T09:35:35;3.88;;;2.60;;
72109;SDS011;59983;52.010;5.420;2023-08-12T09:38:05;5.38;;;2.80;;
72109;SDS011;59983;52.010;5.420;2023-08-12T09:40:34;3.88;;;3.20;;
72109;SDS011;59983;52.010;5.420;2023-08-12T09:43:03;6.67;;;3.43;;
72109;SDS011;59983;52.010;5.420;2023-08-12T09:45:30;3.72;;;3.00;;
72109;SDS011;59983;52.010;5.420;2023-08-12T09:47:58;4.03;;;3.55;;
72109;SDS011;59983;52.010;5.420;2023-08-12T09:50:27;4.45;;;3.50;;
72109;SDS011;59983;52.010;5.420;2023-08-12T09:52:54;4.05;;;3.65;;
72109;SDS011;59983;52.010;5.420;2023-08-12T09:55:23;3.57;;;3.37;;
72109;SDS011;59983;52.010;5.420;2023-08-12T09:57:51;5.30;;;3.78;;
72109;SDS011;59983;52.010;5.420;2023-08-12T10:00:20;5.20;;;3.35;;
72109;SDS011;59983;52.010;5.420;2023-08-12T10:02:50;4.70;;;3.45;;
72109;SDS011;59983;52.010;5.420;2023-08-12T10:07:49;4.87;;;3.67;;
72109;SDS011;59983;52.010;5.420;2023-08-12T10:10:15;7.78;;;3.35;;
72109;SDS011;59983;52.010;5.420;2023-08-12T10:12:42;3.92;;;3.35;;
72109;SDS011;59983;52.010;5.420;2023-08-12T10:15:10;7.97;;;3.95;;
72109;SDS011;59983;52.010;5.420;2023-08-12T10:17:38;4.78;;;3.60;;
72109;SDS011;59983;52.010;5.420;2023-08-12T10:20:12;6.30;;;3.90;;
72109;SDS011;59983;52.010;5.420;2023-08-12T10:22:40;6.35;;;3.42;;
72109;SDS011;59983;52.010;5.420;2023-08-12T10:25:09;3.78;;;3.40;;
72109;SDS011;59983;52.010;5.420;2023-08-12T10:27:36;6.43;;;3.53;;
72109;SDS011;59983;52.010;5.420;2023-08-12T10:30:04;4.57;;;3.05;;
72109;SDS011;59983;52.010;5.420;2023-08-12T10:32:31;5.77;;;2.87;;
72109;SDS011;59983;52.010;5.420;2023-08-12T10:34:59;7.90;;;2.80;;
72109;SDS011;59983;52.010;5.420;2023-08-12T10:37:26;5.78;;;3.03;;
72109;SDS011;59983;52.010;5.420;2023-08-12T10:39:57;5.00;;;2.65;;
72109;SDS011;59983;52.010;5.420;2023-08-12T10:42:39;7.25;;;2.78;;
72109;SDS011;59983;52.010;5.420;2023-08-12T10:45:13;6.13;;;3.07;;
72109;SDS011;59983;52.010;5.420;2023-08-12T10:50:26;3.63;;;2.85;;
72109;SDS011;59983;52.010;5.420;2023-08-12T10:52:53;6.00;;;2.75;;
72109;SDS011;59983;52.010;5.420;2023-08-12T10:55:24;7.82;;;2.80;;
72109;SDS011;59983;52.010;5.420;2023-08-12T10:57:57;6.40;;;2.57;;
72109;SDS011;59983;52.010;5.420;2023-08-12T11:00:25;4.18;;;2.60;;
72109;SDS011;59983;52.010;5.420;2023-08-12T11:02:53;6.43;;;3.35;;
72109;SDS011;59983;52.010;5.420;2023-08-12T11:05:22;10.95;;;4.07;;
72109;SDS011;59983;52.010;5.420;2023-08-12T11:10:32;5.77;;;2.53;;
72109;SDS011;59983;52.010;5.420;2023-08-12T11:13:01;5.50;;;2.72;;
72109;SDS011;59983;52.010;5.420;2023-08-12T11:15:36;3.35;;;2.40;;
72109;SDS011;59983;52.010;5.420;2023-08-12T11:18:04;4.70;;;2.33;;
72109;SDS011;59983;52.010;5.420;2023-08-12T11:20:35;4.82;;;2.83;;
72109;SDS011;59983;52.010;5.420;2023-08-12T11:23:03;7.33;;;2.50;;
72109;SDS011;59983;52.010;5.420;2023-08-12T11:25:31;5.13;;;2.90;;
72109;SDS011;59983;52.010;5.420;2023-08-12T11:27:59;5.55;;;2.53;;
72109;SDS011;59983;52.010;5.420;2023-08-12T11:30:26;7.78;;;2.72;;
72109;SDS011;59983;52.010;5.420;2023-08-12T11:32:58;7.13;;;2.75;;
72109;SDS011;59983;52.010;5.420;2023-08-12T11:35:25;4.73;;;2.40;;
72109;SDS011;59983;52.010;5.420;2023-08-12T11:37:53;7.97;;;3.13;;
72109;SDS011;59983;52.010;5.420;2023-08-12T11:40:22;5.15;;;2.63;;
72109;SDS011;59983;52.010;5.420;2023-08-12T11:42:50;4.30;;;2.65;;
72109;SDS011;59983;52.010;5.420;2023-08-12T11:45:18;5.78;;;3.10;;
72109;SDS011;59983;52.010;5.420;2023-08-12T11:47:46;9.70;;;3.80;;
72109;SDS011;59983;52.010;5.420;2023-08-12T11:50:21;6.47;;;3.70;;
72109;SDS011;59983;52.010;5.420;2023-08-12T11:52:53;5.38;;;3.20;;
72109;SDS011;59983;52.010;5.420;2023-08-12T11:55:21;10.45;;;3.03;;
72109;SDS011;59983;52.010;5.420;2023-08-12T11:57:48;4.25;;;2.58;;
72109;SDS011;59983;52.010;5.420;2023-08-12T12:00:16;6.17;;;2.50;;
72109;SDS011;59983;52.010;5.420;2023-08-12T12:02:52;8.18;;;2.60;;
72109;SDS011;59983;52.010;5.420;2023-08-12T12:05:21;5.63;;;2.60;;
72109;SDS011;59983;52.010;5.420;2023-08-12T12:07:50;7.22;;;2.83;;
72109;SDS011;59983;52.010;5.420;2023-08-12T12:10:19;5.40;;;2.60;;
72109;SDS011;59983;52.010;5.420;2023-08-12T12:13:02;6.67;;;2.83;;
72109;SDS011;59983;52.010;5.420;2023-08-12T12:15:31;6.20;;;2.17;;
72109;SDS011;59983;52.010;5.420;2023-08-12T12:17:58;8.82;;;2.80;;
72109;SDS011;59983;52.010;5.420;2023-08-12T12:20:25;6.95;;;1.98;;
72109;SDS011;59983;52.010;5.420;2023-08-12T12:22:53;5.03;;;2.25;;
72109;SDS011;59983;52.010;5.420;2023-08-12T12:25:21;4.13;;;1.73;;
72109;SDS011;59983;52.010;5.420;2023-08-12T12:27:48;8.38;;;2.22;;
72109;SDS011;59983;52.010;5.420;2023-08-12T12:30:15;4.65;;;2.10;;
72109;SDS011;59983;52.010;5.420;2023-08-12T12:32:42;8.52;;;2.53;;
72109;SDS011;59983;52.010;5.420;2023-08-12T12:35:10;5.45;;;2.05;;
72109;SDS011;59983;52.010;5.420;2023-08-12T12:37:36;3.90;;;2.07;;
72109;SDS011;59983;52.010;5.420;2023-08-12T12:40:04;5.00;;;2.00;;
72109;SDS011;59983;52.010;5.420;2023-08-12T12:42:32;6.47;;;1.80;;
72109;SDS011;59983;52.010;5.420;2023-08-12T12:44:58;5.85;;;1.92;;
72109;SDS011;59983;52.010;5.420;2023-08-12T12:47:25;4.63;;;1.60;;
72109;SDS011;59983;52.010;5.420;2023-08-12T12:49:52;4.90;;;2.27;;
72109;SDS011;59983;52.010;5.420;2023-08-12T12:52:18;5.78;;;2.03;;
72109;SDS011;59983;52.010;5.420;2023-08-12T12:54:45;5.75;;;1.80;;
72109;SDS011;59983;52.010;5.420;2023-08-12T12:57:11;5.85;;;2.15;;
72109;SDS011;59983;52.010;5.420;2023-08-12T12:59:38;5.72;;;1.80;;
72109;SDS011;59983;52.010;5.420;2023-08-12T13:02:04;6.03;;;1.77;;
72109;SDS011;59983;52.010;5.420;2023-08-12T13:04:31;4.55;;;1.65;;
72109;SDS011;59983;52.010;5.420;2023-08-12T13:06:57;6.95;;;1.95;;
72109;SDS011;59983;52.010;5.420;2023-08-12T13:09:24;8.38;;;1.67;;
72109;SDS011;59983;52.010;5.420;2023-08-12T13:11:51;5.80;;;1.77;;
72109;SDS011;59983;52.010;5.420;2023-08-12T13:14:17;8.83;;;1.87;;
72109;SDS011;59983;52.010;5.420;2023-08-12T13:16:47;4.97;;;2.00;;
72109;SDS011;59983;52.010;5.420;2023-08-12T13:19:14;6.95;;;2.95;;
72109;SDS011;59983;52.010;5.420;2023-08-12T13:21:41;7.93;;;2.17;;
72109;SDS011;59983;52.010;5.420;2023-08-12T13:24:07;10.40;;;2.60;;
72109;SDS011;59983;52.010;5.420;2023-08-12T13:26:34;6.27;;;2.83;;
72109;SDS011;59983;52.010;5.420;2023-08-12T13:29:00;4.40;;;1.80;;
72109;SDS011;59983;52.010;5.420;2023-08-12T13:31:27;5.53;;;2.00;;
72109;SDS011;59983;52.010;5.420;2023-08-12T13:33:54;4.15;;;2.03;;
72109;SDS011;59983;52.010;5.420;2023-08-12T13:36:20;6.32;;;2.00;;
72109;SDS011;59983;52.010;5.420;2023-08-12T13:38:46;3.73;;;1.77;;
72109;SDS011;59983;52.010;5.420;2023-08-12T13:41:13;5.97;;;1.92;;
72109;SDS011;59983;52.010;5.420;2023-08-12T13:43:40;6.53;;;2.40;;
72109;SDS011;59983;52.010;5.420;2023-08-12T13:46:06;5.93;;;2.00;;
72109;SDS011;59983;52.010;5.420;2023-08-12T13:48:33;6.20;;;2.13;;
72109;SDS011;59983;52.010;5.420;2023-08-12T13:51:00;6.73;;;2.07;;
72109;SDS011;59983;52.010;5.420;2023-08-12T13:53:27;10.68;;;2.45;;
72109;SDS011;59983;52.010;5.420;2023-08-12T13:55:54;7.18;;;2.30;;
72109;SDS011;59983;52.010;5.420;2023-08-12T13:58:20;6.15;;;2.35;;
72109;SDS011;59983;52.010;5.420;2023-08-12T14:00:47;11.07;;;2.67;;
72109;SDS011;59983;52.010;5.420;2023-08-12T14:03:14;6.83;;;2.00;;
72109;SDS011;59983;52.010;5.420;2023-08-12T14:05:41;9.02;;;2.05;;
72109;SDS011;59983;52.010;5.420;2023-08-12T14:08:08;6.63;;;1.42;;
72109;SDS011;59983;52.010;5.420;2023-08-12T14:10:35;3.75;;;1.38;;
72109;SDS011;59983;52.010;5.420;2023-08-12T14:13:02;4.55;;;1.77;;
72109;SDS011;59983;52.010;5.420;2023-08-12T14:15:28;8.23;;;1.90;;
72109;SDS011;59983;52.010;5.420;2023-08-12T14:17:55;6.53;;;2.35;;
72109;SDS011;59983;52.010;5.420;2023-08-12T14:20:21;13.23;;;2.95;;
72109;SDS011;59983;52.010;5.420;2023-08-12T14:22:48;8.65;;;2.33;;
72109;SDS011;59983;52.010;5.420;2023-08-12T14:25:14;15.93;;;2.58;;
72109;SDS011;59983;52.010;5.420;2023-08-12T14:27:41;10.03;;;1.90;;
72109;SDS011;59983;52.010;5.420;2023-08-12T14:30:08;6.22;;;1.75;;
72109;SDS011;59983;52.010;5.420;2023-08-12T14:32:35;4.75;;;1.60;;
72109;SDS011;59983;52.010;5.420;2023-08-12T14:35:02;8.98;;;1.67;;
72109;SDS011;59983;52.010;5.420;2023-08-12T14:37:30;12.32;;;2.28;;
72109;SDS011;59983;52.010;5.420;2023-08-12T14:39:56;4.80;;;2.10;;
72109;SDS011;59983;52.010;5.420;2023-08-12T14:42:23;8.65;;;1.83;;
72109;SDS011;59983;52.010;5.420;2023-08-12T14:44:49;13.25;;;2.35;;
72109;SDS011;59983;52.010;5.420;2023-08-12T14:47:16;9.07;;;2.03;;